sensor_id;sensor_type;location;lat;lon;timestamp;temperature;humidity
44833;DHT22;30569;51.252;9.830;2024-03-08T00:00:34;1.60;99.90
44833;DHT22;30569;51.252;9.830;2024-03-08T00:02:59;1.70;99.90
44833;DHT22;30569;51.252;9.830;2024-03-08T00:05:27;1.60;99.90
44833;DHT22;30569;51.252;9.830;2024-03-08T00:10:19;1.90;99.90
44833;DHT22;30569;51.252;9.830;2024-03-08T00:12:46;2.00;99.90
44833;DHT22;30569;51.252;9.830;2024-03-08T00:15:14;1.90;99.90
44833;DHT22;30569;51.252;9.830;2024-03-08T00:17:40;2.00;99.90
44833;DHT22;30569;51.252;9.830;2024-03-08T00:20:07;2.00;99.90
44833;DHT22;30569;51.252;9.830;2024-03-08T00:22:36;1.80;99.90
44833;DHT22;30569;51.252;9.830;2024-03-08T00:25:03;2.00;99.90
44833;DHT22;30569;51.252;9.830;2024-03-08T00:29:58;2.20;99.90
44833;DHT22;30569;51.252;9.830;2024-03-08T00:32:23;1.90;99.90
44833;DHT22;30569;51.252;9.830;2024-03-08T00:34:49;2.00;99.90
44833;DHT22;30569;51.252;9.830;2024-03-08T00:37:17;1.90;99.90
44833;DHT22;30569;51.252;9.830;2024-03-08T00:39:43;2.00;99.90
44833;DHT22;30569;51.252;9.830;2024-03-08T00:42:09;1.60;99.90
44833;DHT22;30569;51.252;9.830;2024-03-08T00:44:34;1.50;99.90
44833;DHT22;30569;51.252;9.830;2024-03-08T00:47:00;1.70;99.90
44833;DHT22;30569;51.252;9.830;2024-03-08T00:49:25;1.20;99.90
44833;DHT22;30569;51.252;9.830;2024-03-08T00:51:51;1.60;99.90
44833;DHT22;30569;51.252;9.830;2024-03-08T00:56:42;1.70;99.90
44833;DHT22;30569;51.252;9.830;2024-03-08T01:01:34;2.20;99.90
44833;DHT22;30569;51.252;9.830;2024-03-08T01:03:59;2.30;99.90
44833;DHT22;30569;51.252;9.830;2024-03-08T01:06:25;2.10;99.90
44833;DHT22;30569;51.252;9.830;2024-03-08T01:08:50;1.80;99.90
44833;DHT22;30569;51.252;9.830;2024-03-08T01:11:18;2.10;99.90
44833;DHT22;30569;51.252;9.830;2024-03-08T01:13:44;2.10;99.90
44833;DHT22;30569;51.252;9.830;2024-03-08T01:16:12;2.60;99.90
44833;DHT22;30569;51.252;9.830;2024-03-08T01:21:04;2.10;99.90
44833;DHT22;30569;51.252;9.830;2024-03-08T01:23:30;2.10;99.90
44833;DHT22;30569;51.252;9.830;2024-03-08T01:25:55;2.20;99.90
44833;DHT22;30569;51.252;9.830;2024-03-08T01:28:24;1.90;99.90
44833;DHT22;30569;51.252;9.830;2024-03-08T01:30:50;1.90;99.90
44833;DHT22;30569;51.252;9.830;2024-03-08T01:33:26;2.00;99.90
44833;DHT22;30569;51.252;9.830;2024-03-08T01:38:19;1.80;99.90
44833;DHT22;30569;51.252;9.830;2024-03-08T01:40:47;2.00;99.90
44833;DHT22;30569;51.252;9.830;2024-03-08T01:43:20;1.60;99.90
44833;DHT22;30569;51.252;9.830;2024-03-08T01:45:46;1.60;99.90
44833;DHT22;30569;51.252;9.830;2024-03-08T01:48:12;1.60;99.90
44833;DHT22;30569;51.252;9.830;2024-03-08T01:50:38;1.50;99.90
44833;DHT22;30569;51.252;9.830;2024-03-08T01:53:05;2.20;99.90
44833;DHT22;30569;51.252;9.830;2024-03-08T01:55:31;1.70;99.90
44833;DHT22;30569;51.252;9.830;2024-03-08T01:57:57;1.20;99.90
44833;DHT22;30569;51.252;9.830;2024-03-08T02:00:24;1.40;99.90
44833;DHT22;30569;51.252;9.830;2024-03-08T02:02:54;1.50;99.90
44833;DHT22;30569;51.252;9.830;2024-03-08T02:05:20;1.70;99.90
44833;DHT22;30569;51.252;9.830;2024-03-08T02:07:46;1.80;99.90
44833;DHT22;30569;51.252;9.830;2024-03-08T02:10:12;1.70;99.90
44833;DHT22;30569;51.252;9.830;2024-03-08T02:12:38;1.70;99.90
44833;DHT22;30569;51.252;9.830;2024-03-08T02:15:04;1.40;99.90
44833;DHT22;30569;51.252;9.830;2024-03-08T02:17:32;1.10;99.90
44833;DHT22;30569;51.252;9.830;2024-03-08T02:20:02;1.70;99.90
44833;DHT22;30569;51.252;9.830;2024-03-08T02:22:30;1.00;99.90
44833;DHT22;30569;51.252;9.830;2024-03-08T02:24:56;1.10;99.90
44833;DHT22;30569;51.252;9.830;2024-03-08T02:27:25;0.80;99.90
44833;DHT22;30569;51.252;9.830;2024-03-08T02:29:53;0.80;99.90
44833;DHT22;30569;51.252;9.830;2024-03-08T02:32:21;1.10;99.90
44833;DHT22;30569;51.252;9.830;2024-03-08T02:34:47;1.50;99.90
44833;DHT22;30569;51.252;9.830;2024-03-08T02:37:13;0.90;99.90
44833;DHT22;30569;51.252;9.830;2024-03-08T02:39:39;0.90;99.90
44833;DHT22;30569;51.252;9.830;2024-03-08T02:42:04;1.00;99.90
44833;DHT22;30569;51.252;9.830;2024-03-08T02:44:30;0.80;99.90
44833;DHT22;30569;51.252;9.830;2024-03-08T02:46:55;0.80;99.90
44833;DHT22;30569;51.252;9.830;2024-03-08T02:49:21;0.90;99.90
44833;DHT22;30569;51.252;9.830;2024-03-08T02:51:47;1.00;99.90
44833;DHT22;30569;51.252;9.830;2024-03-08T02:54:12;0.90;99.90
44833;DHT22;30569;51.252;9.830;2024-03-08T02:56:38;0.70;99.90
44833;DHT22;30569;51.252;9.830;2024-03-08T02:59:04;0.80;99.90
44833;DHT22;30569;51.252;9.830;2024-03-08T03:01:29;0.60;99.90
44833;DHT22;30569;51.252;9.830;2024-03-08T03:03:55;0.30;99.90
44833;DHT22;30569;51.252;9.830;2024-03-08T03:06:20;0.00;99.90
44833;DHT22;30569;51.252;9.830;2024-03-08T03:08:46;0.40;99.90
44833;DHT22;30569;51.252;9.830;2024-03-08T03:11:12;0.70;99.90
44833;DHT22;30569;51.252;9.830;2024-03-08T03:13:39;0.10;99.90
44833;DHT22;30569;51.252;9.830;2024-03-08T03:18:31;0.10;99.90
44833;DHT22;30569;51.252;9.830;2024-03-08T03:20:58;0.10;99.90
44833;DHT22;30569;51.252;9.830;2024-03-08T03:23:24;0.10;99.90
44833;DHT22;30569;51.252;9.830;2024-03-08T03:25:51;0.50;99.90
44833;DHT22;30569;51.252;9.830;2024-03-08T03:28:17;0.30;99.90
44833;DHT22;30569;51.252;9.830;2024-03-08T03:33:13;0.20;99.90
44833;DHT22;30569;51.252;9.830;2024-03-08T03:35:40;0.50;99.90
44833;DHT22;30569;51.252;9.830;2024-03-08T03:38:06;0.10;99.90
44833;DHT22;30569;51.252;9.830;2024-03-08T03:40:39;0.20;99.90
44833;DHT22;30569;51.252;9.830;2024-03-08T03:45:31;0.50;99.90
44833;DHT22;30569;51.252;9.830;2024-03-08T03:48:01;0.70;99.90
44833;DHT22;30569;51.252;9.830;2024-03-08T03:50:27;0.90;99.90
44833;DHT22;30569;51.252;9.830;2024-03-08T03:55:19;0.60;99.90
44833;DHT22;30569;51.252;9.830;2024-03-08T03:57:45;0.70;99.90
44833;DHT22;30569;51.252;9.830;2024-03-08T04:00:11;0.90;99.90
44833;DHT22;30569;51.252;9.830;2024-03-08T04:02:40;0.70;99.90
44833;DHT22;30569;51.252;9.830;2024-03-08T04:05:06;0.50;99.90
44833;DHT22;30569;51.252;9.830;2024-03-08T04:07:33;0.60;99.90
44833;DHT22;30569;51.252;9.830;2024-03-08T04:10:00;0.60;99.90
44833;DHT22;30569;51.252;9.830;2024-03-08T04:14:52;0.70;99.90
44833;DHT22;30569;51.252;9.830;2024-03-08T04:17:18;0.70;99.90
44833;DHT22;30569;51.252;9.830;2024-03-08T04:22:10;0.80;99.90
44833;DHT22;30569;51.252;9.830;2024-03-08T04:24:35;0.70;99.90
44833;DHT22;30569;51.252;9.830;2024-03-08T04:27:01;0.80;99.90
44833;DHT22;30569;51.252;9.830;2024-03-08T04:29:26;1.10;99.90
44833;DHT22;30569;51.252;9.830;2024-03-08T04:31:52;0.80;99.90
44833;DHT22;30569;51.252;9.830;2024-03-08T04:34:22;0.80;99.90
44833;DHT22;30569;51.252;9.830;2024-03-08T04:36:48;0.90;99.90
44833;DHT22;30569;51.252;9.830;2024-03-08T04:41:42;1.20;99.90
44833;DHT22;30569;51.252;9.830;2024-03-08T04:44:11;0.90;99.90
44833;DHT22;30569;51.252;9.830;2024-03-08T04:49:04;0.80;99.90
44833;DHT22;30569;51.252;9.830;2024-03-08T04:51:30;0.60;99.90
44833;DHT22;30569;51.252;9.830;2024-03-08T04:53:55;0.70;99.90
44833;DHT22;30569;51.252;9.830;2024-03-08T04:56:22;0.60;99.90
44833;DHT22;30569;51.252;9.830;2024-03-08T04:58:48;0.60;99.90
44833;DHT22;30569;51.252;9.830;2024-03-08T05:01:14;0.90;99.90
44833;DHT22;30569;51.252;9.830;2024-03-08T05:03:39;0.60;99.90
44833;DHT22;30569;51.252;9.830;2024-03-08T05:08:31;0.50;99.90
44833;DHT22;30569;51.252;9.830;2024-03-08T05:10:56;0.70;99.90
44833;DHT22;30569;51.252;9.830;2024-03-08T05:13:22;1.10;99.90
44833;DHT22;30569;51.252;9.830;2024-03-08T05:15:49;0.60;99.90
44833;DHT22;30569;51.252;9.830;2024-03-08T05:18:15;0.40;99.90
44833;DHT22;30569;51.252;9.830;2024-03-08T05:23:07;0.70;99.90
44833;DHT22;30569;51.252;9.830;2024-03-08T05:25:33;0.60;99.90
44833;DHT22;30569;51.252;9.830;2024-03-08T05:30:25;0.20;99.90
44833;DHT22;30569;51.252;9.830;2024-03-08T05:32:50;0.50;99.90
44833;DHT22;30569;51.252;9.830;2024-03-08T05:35:16;0.50;99.90
44833;DHT22;30569;51.252;9.830;2024-03-08T05:37:42;0.60;99.90
44833;DHT22;30569;51.252;9.830;2024-03-08T05:40:08;0.10;99.90
44833;DHT22;30569;51.252;9.830;2024-03-08T05:42:37;0.10;99.90
44833;DHT22;30569;51.252;9.830;2024-03-08T05:45:04;0.00;99.90
44833;DHT22;30569;51.252;9.830;2024-03-08T05:47:32;-0.10;99.90
44833;DHT22;30569;51.252;9.830;2024-03-08T05:49:58;-0.60;99.90
44833;DHT22;30569;51.252;9.830;2024-03-08T05:52:24;-0.30;99.90
44833;DHT22;30569;51.252;9.830;2024-03-08T05:54:51;0.10;99.90
44833;DHT22;30569;51.252;9.830;2024-03-08T05:59:43;-0.10;99.90
44833;DHT22;30569;51.252;9.830;2024-03-08T06:02:08;-0.20;99.90
44833;DHT22;30569;51.252;9.830;2024-03-08T06:04:34;-0.60;99.90
44833;DHT22;30569;51.252;9.830;2024-03-08T06:06:59;-0.20;99.90
44833;DHT22;30569;51.252;9.830;2024-03-08T06:11:52;-0.40;99.90
44833;DHT22;30569;51.252;9.830;2024-03-08T06:14:19;-0.50;99.90
44833;DHT22;30569;51.252;9.830;2024-03-08T06:19:12;-0.10;99.90
44833;DHT22;30569;51.252;9.830;2024-03-08T06:21:37;0.00;99.90
44833;DHT22;30569;51.252;9.830;2024-03-08T06:24:03;0.10;99.90
44833;DHT22;30569;51.252;9.830;2024-03-08T06:28:55;-0.10;99.90
44833;DHT22;30569;51.252;9.830;2024-03-08T06:33:47;-0.20;99.90
44833;DHT22;30569;51.252;9.830;2024-03-08T06:36:16;-0.30;99.90
44833;DHT22;30569;51.252;9.830;2024-03-08T06:41:11;0.20;99.90
44833;DHT22;30569;51.252;9.830;2024-03-08T06:43:42;0.00;99.90
44833;DHT22;30569;51.252;9.830;2024-03-08T06:46:08;0.20;99.90
44833;DHT22;30569;51.252;9.830;2024-03-08T06:48:33;-0.30;99.90
44833;DHT22;30569;51.252;9.830;2024-03-08T06:53:25;-0.30;99.90
44833;DHT22;30569;51.252;9.830;2024-03-08T06:55:51;-0.40;99.90
44833;DHT22;30569;51.252;9.830;2024-03-08T06:58:16;-0.30;99.90
44833;DHT22;30569;51.252;9.830;2024-03-08T07:00:42;-0.50;99.90
44833;DHT22;30569;51.252;9.830;2024-03-08T07:03:08;-0.20;99.90
44833;DHT22;30569;51.252;9.830;2024-03-08T07:05:37;-0.10;99.90
44833;DHT22;30569;51.252;9.830;2024-03-08T07:08:03;-0.10;99.90
44833;DHT22;30569;51.252;9.830;2024-03-08T07:10:29;-0.20;99.90
44833;DHT22;30569;51.252;9.830;2024-03-08T07:12:55;0.00;99.90
44833;DHT22;30569;51.252;9.830;2024-03-08T07:15:20;0.40;99.90
44833;DHT22;30569;51.252;9.830;2024-03-08T07:17:46;0.30;99.90
44833;DHT22;30569;51.252;9.830;2024-03-08T07:20:13;0.70;99.90
44833;DHT22;30569;51.252;9.830;2024-03-08T07:22:39;0.80;99.90
44833;DHT22;30569;51.252;9.830;2024-03-08T07:25:06;0.90;99.90
44833;DHT22;30569;51.252;9.830;2024-03-08T07:27:48;0.80;99.90
44833;DHT22;30569;51.252;9.830;2024-03-08T07:30:13;0.50;99.90
44833;DHT22;30569;51.252;9.830;2024-03-08T07:35:30;0.80;99.90
44833;DHT22;30569;51.252;9.830;2024-03-08T07:40:23;1.10;99.90
44833;DHT22;30569;51.252;9.830;2024-03-08T07:42:49;1.40;99.90
44833;DHT22;30569;51.252;9.830;2024-03-08T07:45:15;1.40;99.90
44833;DHT22;30569;51.252;9.830;2024-03-08T07:47:41;1.90;99.90
44833;DHT22;30569;51.252;9.830;2024-03-08T07:50:07;2.00;99.90
44833;DHT22;30569;51.252;9.830;2024-03-08T07:52:36;1.90;99.90
44833;DHT22;30569;51.252;9.830;2024-03-08T07:55:05;2.20;99.90
44833;DHT22;30569;51.252;9.830;2024-03-08T07:57:31;2.20;99.90
44833;DHT22;30569;51.252;9.830;2024-03-08T07:59:57;2.20;99.90
44833;DHT22;30569;51.252;9.830;2024-03-08T08:02:23;2.20;99.90
44833;DHT22;30569;51.252;9.830;2024-03-08T08:04:49;2.40;99.90
44833;DHT22;30569;51.252;9.830;2024-03-08T08:07:14;2.90;99.90
44833;DHT22;30569;51.252;9.830;2024-03-08T08:09:40;2.80;99.90
44833;DHT22;30569;51.252;9.830;2024-03-08T08:12:11;2.80;99.90
44833;DHT22;30569;51.252;9.830;2024-03-08T08:14:38;2.90;99.90
44833;DHT22;30569;51.252;9.830;2024-03-08T08:17:04;3.00;99.90
44833;DHT22;30569;51.252;9.830;2024-03-08T08:19:30;3.10;99.90
44833;DHT22;30569;51.252;9.830;2024-03-08T08:21:57;3.10;99.90
44833;DHT22;30569;51.252;9.830;2024-03-08T08:24:23;3.10;99.90
44833;DHT22;30569;51.252;9.830;2024-03-08T08:26:48;3.50;99.90
44833;DHT22;30569;51.252;9.830;2024-03-08T08:29:14;3.50;99.90
44833;DHT22;30569;51.252;9.830;2024-03-08T08:31:40;3.30;99.90
44833;DHT22;30569;51.252;9.830;2024-03-08T08:36:32;3.30;99.90
44833;DHT22;30569;51.252;9.830;2024-03-08T08:38:59;3.70;99.90
44833;DHT22;30569;51.252;9.830;2024-03-08T08:41:25;3.60;99.90
44833;DHT22;30569;51.252;9.830;2024-03-08T08:43:50;4.50;98.60
44833;DHT22;30569;51.252;9.830;2024-03-08T08:46:19;4.90;98.50
44833;DHT22;30569;51.252;9.830;2024-03-08T08:48:46;5.10;98.80
44833;DHT22;30569;51.252;9.830;2024-03-08T08:51:12;5.70;97.80
44833;DHT22;30569;51.252;9.830;2024-03-08T08:53:39;5.60;96.80
44833;DHT22;30569;51.252;9.830;2024-03-08T08:56:11;5.50;96.80
44833;DHT22;30569;51.252;9.830;2024-03-08T08:58:41;5.20;97.00
44833;DHT22;30569;51.252;9.830;2024-03-08T09:01:08;4.90;98.00
44833;DHT22;30569;51.252;9.830;2024-03-08T09:03:35;5.20;97.50
44833;DHT22;30569;51.252;9.830;2024-03-08T09:06:06;5.20;97.60
44833;DHT22;30569;51.252;9.830;2024-03-08T09:08:38;5.50;96.80
44833;DHT22;30569;51.252;9.830;2024-03-08T09:11:04;5.90;96.50
44833;DHT22;30569;51.252;9.830;2024-03-08T09:13:31;6.20;95.30
44833;DHT22;30569;51.252;9.830;2024-03-08T09:15:56;6.20;95.40
44833;DHT22;30569;51.252;9.830;2024-03-08T09:18:22;6.10;95.70
44833;DHT22;30569;51.252;9.830;2024-03-08T09:20:49;7.20;95.20
44833;DHT22;30569;51.252;9.830;2024-03-08T09:23:15;7.40;93.50
44833;DHT22;30569;51.252;9.830;2024-03-08T09:25:42;7.80;92.40
44833;DHT22;30569;51.252;9.830;2024-03-08T09:28:09;8.50;92.00
44833;DHT22;30569;51.252;9.830;2024-03-08T09:30:34;8.70;91.00
44833;DHT22;30569;51.252;9.830;2024-03-08T09:33:01;9.40;88.80
44833;DHT22;30569;51.252;9.830;2024-03-08T09:35:27;10.30;84.10
44833;DHT22;30569;51.252;9.830;2024-03-08T09:37:53;11.00;84.10
44833;DHT22;30569;51.252;9.830;2024-03-08T09:40:19;12.00;80.70
44833;DHT22;30569;51.252;9.830;2024-03-08T09:42:46;12.90;77.90
44833;DHT22;30569;51.252;9.830;2024-03-08T09:45:13;14.30;73.10
44833;DHT22;30569;51.252;9.830;2024-03-08T09:47:44;15.50;70.90
44833;DHT22;30569;51.252;9.830;2024-03-08T09:50:11;14.60;68.70
44833;DHT22;30569;51.252;9.830;2024-03-08T09:52:42;16.60;69.70
44833;DHT22;30569;51.252;9.830;2024-03-08T09:55:09;17.80;64.40
44833;DHT22;30569;51.252;9.830;2024-03-08T09:57:37;18.60;61.00
44833;DHT22;30569;51.252;9.830;2024-03-08T10:00:04;18.10;62.70
44833;DHT22;30569;51.252;9.830;2024-03-08T10:02:45;18.70;60.80
44833;DHT22;30569;51.252;9.830;2024-03-08T10:05:12;18.00;57.40
44833;DHT22;30569;51.252;9.830;2024-03-08T10:07:38;16.40;62.50
44833;DHT22;30569;51.252;9.830;2024-03-08T10:10:04;14.50;64.20
44833;DHT22;30569;51.252;9.830;2024-03-08T10:12:29;15.00;66.30
44833;DHT22;30569;51.252;9.830;2024-03-08T10:14:58;15.80;63.80
44833;DHT22;30569;51.252;9.830;2024-03-08T10:17:24;16.80;63.70
44833;DHT22;30569;51.252;9.830;2024-03-08T10:19:50;16.80;61.20
44833;DHT22;30569;51.252;9.830;2024-03-08T10:22:18;15.20;65.30
44833;DHT22;30569;51.252;9.830;2024-03-08T10:24:48;12.30;70.10
44833;DHT22;30569;51.252;9.830;2024-03-08T10:27:16;12.00;71.80
44833;DHT22;30569;51.252;9.830;2024-03-08T10:29:41;12.20;73.20
44833;DHT22;30569;51.252;9.830;2024-03-08T10:32:09;12.70;70.00
44833;DHT22;30569;51.252;9.830;2024-03-08T10:34:35;10.90;73.40
44833;DHT22;30569;51.252;9.830;2024-03-08T10:37:04;8.50;80.80
44833;DHT22;30569;51.252;9.830;2024-03-08T10:39:35;8.40;82.70
44833;DHT22;30569;51.252;9.830;2024-03-08T10:42:03;7.60;84.70
44833;DHT22;30569;51.252;9.830;2024-03-08T10:49:43;7.00;87.70
44833;DHT22;30569;51.252;9.830;2024-03-08T10:52:11;7.10;88.00
44833;DHT22;30569;51.252;9.830;2024-03-08T10:54:39;7.20;86.60
44833;DHT22;30569;51.252;9.830;2024-03-08T10:57:06;7.20;86.90
44833;DHT22;30569;51.252;9.830;2024-03-08T10:59:34;7.40;85.70
44833;DHT22;30569;51.252;9.830;2024-03-08T11:02:01;6.80;87.30
44833;DHT22;30569;51.252;9.830;2024-03-08T11:07:03;7.50;87.80
44833;DHT22;30569;51.252;9.830;2024-03-08T11:09:38;7.50;88.10
44833;DHT22;30569;51.252;9.830;2024-03-08T11:14:47;7.60;90.40
44833;DHT22;30569;51.252;9.830;2024-03-08T11:17:15;7.40;88.90
44833;DHT22;30569;51.252;9.830;2024-03-08T11:19:46;7.40;88.30
44833;DHT22;30569;51.252;9.830;2024-03-08T11:22:26;6.80;89.00
44833;DHT22;30569;51.252;9.830;2024-03-08T11:24:53;6.80;90.50
44833;DHT22;30569;51.252;9.830;2024-03-08T11:27:19;7.20;91.70
44833;DHT22;30569;51.252;9.830;2024-03-08T11:30:01;7.10;91.90
44833;DHT22;30569;51.252;9.830;2024-03-08T11:32:36;6.90;90.40
44833;DHT22;30569;51.252;9.830;2024-03-08T11:35:06;7.00;91.00
44833;DHT22;30569;51.252;9.830;2024-03-08T11:37:34;7.00;91.20
44833;DHT22;30569;51.252;9.830;2024-03-08T11:40:12;6.90;91.90
44833;DHT22;30569;51.252;9.830;2024-03-08T11:42:44;6.80;91.90
44833;DHT22;30569;51.252;9.830;2024-03-08T11:45:12;7.30;91.40
44833;DHT22;30569;51.252;9.830;2024-03-08T11:50:06;7.60;91.30
44833;DHT22;30569;51.252;9.830;2024-03-08T11:55:03;7.50;90.90
44833;DHT22;30569;51.252;9.830;2024-03-08T11:59:58;7.50;91.90
44833;DHT22;30569;51.252;9.830;2024-03-08T12:02:24;7.40;92.10
44833;DHT22;30569;51.252;9.830;2024-03-08T12:04:57;7.30;92.00
44833;DHT22;30569;51.252;9.830;2024-03-08T12:10:20;7.20;92.60
44833;DHT22;30569;51.252;9.830;2024-03-08T12:12:51;7.20;92.40
44833;DHT22;30569;51.252;9.830;2024-03-08T12:15:18;7.00;92.60
44833;DHT22;30569;51.252;9.830;2024-03-08T12:17:45;7.20;93.10
44833;DHT22;30569;51.252;9.830;2024-03-08T12:20:24;7.20;93.30
44833;DHT22;30569;51.252;9.830;2024-03-08T12:22:53;7.30;92.40
44833;DHT22;30569;51.252;9.830;2024-03-08T12:25:22;7.40;92.00
44833;DHT22;30569;51.252;9.830;2024-03-08T12:27:47;7.40;93.00
44833;DHT22;30569;51.252;9.830;2024-03-08T12:30:30;7.60;93.00
44833;DHT22;30569;51.252;9.830;2024-03-08T12:33:00;7.90;92.30
44833;DHT22;30569;51.252;9.830;2024-03-08T12:35:27;8.40;92.70
44833;DHT22;30569;51.252;9.830;2024-03-08T12:37:54;8.50;91.90
44833;DHT22;30569;51.252;9.830;2024-03-08T12:40:31;9.00;91.60
44833;DHT22;30569;51.252;9.830;2024-03-08T12:43:01;8.20;89.50
44833;DHT22;30569;51.252;9.830;2024-03-08T12:45:28;7.60;92.00
44833;DHT22;30569;51.252;9.830;2024-03-08T12:47:54;7.40;92.30
44833;DHT22;30569;51.252;9.830;2024-03-08T12:50:21;7.30;92.50
44833;DHT22;30569;51.252;9.830;2024-03-08T13:00:10;7.60;91.70
44833;DHT22;30569;51.252;9.830;2024-03-08T13:10:06;7.80;91.40
44833;DHT22;30569;51.252;9.830;2024-03-08T13:12:32;7.90;90.70
44833;DHT22;30569;51.252;9.830;2024-03-08T13:22:22;8.00;91.10
44833;DHT22;30569;51.252;9.830;2024-03-08T13:24:50;8.00;91.30
44833;DHT22;30569;51.252;9.830;2024-03-08T13:27:17;8.50;91.70
44833;DHT22;30569;51.252;9.830;2024-03-08T13:29:47;8.30;91.50
44833;DHT22;30569;51.252;9.830;2024-03-08T13:34:43;8.40;91.10
44833;DHT22;30569;51.252;9.830;2024-03-08T13:42:12;8.40;92.00
44833;DHT22;30569;51.252;9.830;2024-03-08T13:44:48;8.40;90.90
44833;DHT22;30569;51.252;9.830;2024-03-08T13:47:16;8.30;91.00
44833;DHT22;30569;51.252;9.830;2024-03-08T13:59:30;8.30;91.00
44833;DHT22;30569;51.252;9.830;2024-03-08T14:02:01;8.30;91.30
44833;DHT22;30569;51.252;9.830;2024-03-08T14:04:30;8.50;90.70
44833;DHT22;30569;51.252;9.830;2024-03-08T14:06:56;8.50;91.30
44833;DHT22;30569;51.252;9.830;2024-03-08T14:09:25;8.60;90.50
44833;DHT22;30569;51.252;9.830;2024-03-08T14:11:55;8.60;90.60
44833;DHT22;30569;51.252;9.830;2024-03-08T14:26:34;8.40;91.20
44833;DHT22;30569;51.252;9.830;2024-03-08T14:31:26;8.40;91.00
44833;DHT22;30569;51.252;9.830;2024-03-08T14:38:47;8.50;92.00
44833;DHT22;30569;51.252;9.830;2024-03-08T14:43:42;8.80;90.20
44833;DHT22;30569;51.252;9.830;2024-03-08T14:56:01;9.30;88.80
44833;DHT22;30569;51.252;9.830;2024-03-08T14:58:27;9.20;89.40
44833;DHT22;30569;51.252;9.830;2024-03-08T15:00:53;9.20;89.00
44833;DHT22;30569;51.252;9.830;2024-03-08T15:05:52;8.90;89.80
44833;DHT22;30569;51.252;9.830;2024-03-08T15:10:48;8.50;89.80
44833;DHT22;30569;51.252;9.830;2024-03-08T15:15:59;8.30;90.30
44833;DHT22;30569;51.252;9.830;2024-03-08T15:18:25;8.20;90.20
44833;DHT22;30569;51.252;9.830;2024-03-08T15:25:50;8.50;90.30
44833;DHT22;30569;51.252;9.830;2024-03-08T15:28:16;8.50;90.50
44833;DHT22;30569;51.252;9.830;2024-03-08T15:33:13;8.70;90.70
44833;DHT22;30569;51.252;9.830;2024-03-08T15:35:41;8.50;89.80
44833;DHT22;30569;51.252;9.830;2024-03-08T15:38:07;8.50;90.10
44833;DHT22;30569;51.252;9.830;2024-03-08T15:40:33;8.20;91.10
44833;DHT22;30569;51.252;9.830;2024-03-08T15:43:00;8.30;91.40
44833;DHT22;30569;51.252;9.830;2024-03-08T15:50:18;8.00;90.80
44833;DHT22;30569;51.252;9.830;2024-03-08T15:55:21;8.20;90.70
44833;DHT22;30569;51.252;9.830;2024-03-08T15:57:50;8.10;91.00
44833;DHT22;30569;51.252;9.830;2024-03-08T16:00:18;8.20;91.10
44833;DHT22;30569;51.252;9.830;2024-03-08T16:03:02;8.20;91.50
44833;DHT22;30569;51.252;9.830;2024-03-08T16:05:34;8.20;91.20
44833;DHT22;30569;51.252;9.830;2024-03-08T16:08:00;8.30;91.60
44833;DHT22;30569;51.252;9.830;2024-03-08T16:10:26;8.20;91.10
44833;DHT22;30569;51.252;9.830;2024-03-08T16:17:46;8.10;91.80
44833;DHT22;30569;51.252;9.830;2024-03-08T16:22:43;7.80;91.90
44833;DHT22;30569;51.252;9.830;2024-03-08T16:27:41;8.10;91.30
44833;DHT22;30569;51.252;9.830;2024-03-08T16:30:08;8.10;91.50
44833;DHT22;30569;51.252;9.830;2024-03-08T16:35:03;7.70;92.30
44833;DHT22;30569;51.252;9.830;2024-03-08T16:39:58;7.60;92.40
44833;DHT22;30569;51.252;9.830;2024-03-08T16:52:10;7.80;92.40
44833;DHT22;30569;51.252;9.830;2024-03-08T17:01:59;7.60;92.90
44833;DHT22;30569;51.252;9.830;2024-03-08T17:06:56;7.50;93.20
44833;DHT22;30569;51.252;9.830;2024-03-08T17:21:53;7.10;94.10
44833;DHT22;30569;51.252;9.830;2024-03-08T17:26:51;7.10;94.30
44833;DHT22;30569;51.252;9.830;2024-03-08T17:39:05;7.20;94.20
44833;DHT22;30569;51.252;9.830;2024-03-08T17:41:31;7.10;95.00
44833;DHT22;30569;51.252;9.830;2024-03-08T17:43:56;6.90;94.90
44833;DHT22;30569;51.252;9.830;2024-03-08T17:46:22;6.90;95.40
44833;DHT22;30569;51.252;9.830;2024-03-08T17:48:47;7.40;95.20
44833;DHT22;30569;51.252;9.830;2024-03-08T17:51:13;8.40;95.10
44833;DHT22;30569;51.252;9.830;2024-03-08T17:53:40;7.40;94.20
44833;DHT22;30569;51.252;9.830;2024-03-08T17:56:06;7.20;94.20
44833;DHT22;30569;51.252;9.830;2024-03-08T17:58:34;7.10;94.80
44833;DHT22;30569;51.252;9.830;2024-03-08T18:01:00;6.60;95.50
44833;DHT22;30569;51.252;9.830;2024-03-08T18:05:54;6.50;95.70
44833;DHT22;30569;51.252;9.830;2024-03-08T18:08:19;6.60;95.90
44833;DHT22;30569;51.252;9.830;2024-03-08T18:15:45;6.50;95.90
44833;DHT22;30569;51.252;9.830;2024-03-08T18:18:11;6.60;96.10
44833;DHT22;30569;51.252;9.830;2024-03-08T18:20:37;6.40;96.20
44833;DHT22;30569;51.252;9.830;2024-03-08T18:23:10;6.30;96.60
44833;DHT22;30569;51.252;9.830;2024-03-08T18:25:36;6.50;96.40
44833;DHT22;30569;51.252;9.830;2024-03-08T18:28:03;6.60;96.10
44833;DHT22;30569;51.252;9.830;2024-03-08T18:33:02;6.10;97.10
44833;DHT22;30569;51.252;9.830;2024-03-08T18:35:28;5.60;98.20
44833;DHT22;30569;51.252;9.830;2024-03-08T18:37:54;5.70;98.60
44833;DHT22;30569;51.252;9.830;2024-03-08T18:40:21;5.70;98.80
44833;DHT22;30569;51.252;9.830;2024-03-08T18:45:18;5.80;98.60
44833;DHT22;30569;51.252;9.830;2024-03-08T18:47:52;5.90;98.60
44833;DHT22;30569;51.252;9.830;2024-03-08T18:50:21;5.90;98.80
44833;DHT22;30569;51.252;9.830;2024-03-08T18:52:49;6.20;98.00
44833;DHT22;30569;51.252;9.830;2024-03-08T18:55:16;6.00;98.10
44833;DHT22;30569;51.252;9.830;2024-03-08T18:57:46;5.90;98.50
44833;DHT22;30569;51.252;9.830;2024-03-08T19:02:46;6.10;98.40
44833;DHT22;30569;51.252;9.830;2024-03-08T19:07:43;6.00;98.40
44833;DHT22;30569;51.252;9.830;2024-03-08T19:10:13;7.80;99.10
44833;DHT22;30569;51.252;9.830;2024-03-08T19:12:50;7.20;98.90
44833;DHT22;30569;51.252;9.830;2024-03-08T19:15:20;5.90;98.80
44833;DHT22;30569;51.252;9.830;2024-03-08T19:17:53;6.00;98.40
44833;DHT22;30569;51.252;9.830;2024-03-08T19:20:21;6.00;98.70
44833;DHT22;30569;51.252;9.830;2024-03-08T19:22:49;5.70;99.00
44833;DHT22;30569;51.252;9.830;2024-03-08T19:32:40;5.80;99.50
44833;DHT22;30569;51.252;9.830;2024-03-08T19:35:06;5.80;99.30
44833;DHT22;30569;51.252;9.830;2024-03-08T19:37:40;6.20;98.50
44833;DHT22;30569;51.252;9.830;2024-03-08T19:40:12;6.10;98.30
44833;DHT22;30569;51.252;9.830;2024-03-08T19:42:55;6.10;98.80
44833;DHT22;30569;51.252;9.830;2024-03-08T19:45:25;5.70;99.60
44833;DHT22;30569;51.252;9.830;2024-03-08T19:52:44;5.70;99.70
44833;DHT22;30569;51.252;9.830;2024-03-08T19:55:12;5.60;99.80
44833;DHT22;30569;51.252;9.830;2024-03-08T20:00:05;5.60;99.80
44833;DHT22;30569;51.252;9.830;2024-03-08T20:02:40;5.30;99.90
44833;DHT22;30569;51.252;9.830;2024-03-08T20:05:07;5.60;99.90
44833;DHT22;30569;51.252;9.830;2024-03-08T20:07:37;5.60;99.90
44833;DHT22;30569;51.252;9.830;2024-03-08T20:10:04;5.20;99.90
44833;DHT22;30569;51.252;9.830;2024-03-08T20:12:36;5.40;99.90
44833;DHT22;30569;51.252;9.830;2024-03-08T20:15:04;5.60;99.90
44833;DHT22;30569;51.252;9.830;2024-03-08T20:24:52;5.50;99.80